Kezdőlap
METAR-TAF:

METAR-TAF

Repülőterek :

Piacenza, Olaszország

földrajzi szélesség: 44-55N, földrajzi hosszúság: 009-44E, magasság: 134 m

Jelenlegi meteorológiai megfigyelések

A jelentés 59 perccel ezelõtt készült, 08:55 UTC
Északkeleti szél 2 kt
Hőmérséklet 1°C
Páratartalom 100%
Légköri nyomás 1014 hPa
Látótávolság 10 km, vagy több
felhőtlen 1500 m magasságban, és nincs gomolyfelhõ

METAR: LIMS 280855Z 05002KT CAVOK 01/01 Q1014 RMK BKN BKN200 VIS MIN 9999 WIND THR30 21002KT BLU

Idő: 10:54 (09:54 UTC)


TAF: hiányzik

Meteorológiai megfigyelések és előrejelzések több, mint 4000 repülőtéren (METAR és TAF jelentéseket).

A térképen piros és sárga pontok jelzik az elérhető meteorológiai állomásokat.

Mozgassa az egeret a pont fölött, hogy megjelenjen az állomás neve.

Azután kattintson az időjárási megfigyelések és előrejelzések megtekintéséhez.

A térkép megváltoztatása: kattintson a fekete keresztel jelölt zöld gombra ráközelítéshez, a vonallal jelölt zöld gombra távolításhoz, vagy a zöld nyilakra a szomszédos térképek eléréséhez.


METAR-TAF: